Nearby METAR Reports

 

KMTN - Baltimore/Martin, Maryland, USA
Distance from station: SSE 8mi, 13km
Updated: Tue, 09-Feb-2016 2:45pm EST
Light rain, Overcast
Light rain, Overcast
 Wind from calm
Wind: Calm
Temperature: 36°F , 2°C
Dew Point: 36°F , 2°C
Humidity: 100%
Barometer: 29.57 inHg , 1001.4 hPa
Summary: Light rain
Clouds: Overcast
Visibility: 10 miles , 16 km
Cloud details: Overcast 500 ft
2016/02/09 19:45 KMTN 091945Z 00000KT 10SM -RA OVC005 02/02 A2957
KDMH - Baltimore/Dwntwn, Maryland, USA
Distance from station: SW 12mi, 19km
Updated: Tue, 09-Feb-2016 2:54pm EST

 
Temperature: 36°F , 2°C
Dew Point: 34°F , 1°C
Humidity: 93%
Barometer: 29.56 inHg , 1001 hPa
2016/02/09 19:54 KDMH 091954Z AUTO 02/01 A2956 RMK AO1 SLP009 T00220006
 
KBWI - Balto/Wash Intl, Maryland, USA
Distance from station: SSW 20mi, 33km
Updated: Tue, 09-Feb-2016 2:54pm EST
Light rain, Overcast
Light rain, Overcast
 Wind from calm
Wind: Calm
Temperature: 36°F , 2°C
Dew Point: 34°F , 1°C
Humidity: 93%
Barometer: 29.54 inHg , 1000.3 hPa
Summary: Light rain
Clouds: Overcast
Visibility: 7 miles , 11 km
Cloud details: Mostly cloudy 700 ft
Overcast 1300 ft
2016/02/09 19:54 KBWI 091954Z 00000KT 7SM -RA BKN007 OVC013 02/01 A2954 RMK AO2 SLP004 P0000 T00220006
KDMW - Carroll Cnty, Maryland, USA
Distance from station: WNW 30mi, 48km
Updated: Tue, 09-Feb-2016 3:10pm EST
Light snow, Overcast
Light snow, Overcast
 Wind from WSW
Wind: WSW 6 mph , 9 km/h
Temperature: 34°F , 1°C
Wind Chill: 29°F , -2°C
Dew Point: 30°F , -1°C
Humidity: 87%
Barometer: 29.52 inHg , 999.7 hPa
Summary: Light Snow
Clouds: Overcast
Visibility: 3/4 mile , 5 km
Cloud details: Overcast 500 ft
2016/02/09 20:10 KDMW 092010Z AUTO 25005KT 3/4SM -SN OVC005 01/M01 A2952 RMK AO2 P0001
 
KNAK - Annapolis/Naval, Maryland, USA
Distance from station: S 30mi, 48km
Updated: Tue, 09-Feb-2016 3:08pm EST
Overcast
Overcast
 Wind from WNW
Wind: WNW 7 mph , 11 km/h
Temperature: 37°F , 3°C
Wind Chill: 32°F , 0°C
Dew Point: 34°F , 1°C
Humidity: 87%
Barometer: 29.54 inHg , 1000.3 hPa
Clouds: Overcast
Visibility: 10 miles , 16 km
Cloud details: Mostly cloudy 1600 ft
Mostly cloudy 2000 ft
Overcast 5500 ft
2016/02/09 20:08 KNAK 092008Z AUTO 30006KT 10SM BKN016 BKN020 OVC055 03/01 A2954 RMK AO2 T00330011
KW29 - Stevensville, Maryland, USA
Distance from station: SSE 31mi, 50km
Updated: Tue, 09-Feb-2016 3:13pm EST

 Wind from calm
Wind: Calm
Temperature: 36°F , 2°C
Dew Point: 36°F , 2°C
Humidity: 100%
Barometer: 29.55 inHg , 1000.7 hPa
Visibility: 10 miles , 16 km
2016/02/09 20:13 KW29 092013Z AUTO 00000KT 10SM 02/02 A2955 RMK AO1
 
KCGS - College Park, Maryland, USA
Distance from station: SW 38mi, 61km
Updated: Tue, 09-Feb-2016 3:10pm EST
Mostly cloudy
Mostly cloudy
 Wind from NW
Wind: NW 13 mph , 20 km/h, Gust: 20 mph , 31 km/h
Temperature: 39°F , 4°C
Wind Chill: 31°F , -1°C
Dew Point: 32°F , 0°C
Humidity: 75%
Barometer: 29.55 inHg , 1000.7 hPa
Clouds: Mostly cloudy
Visibility: 10 miles , 16 km
Cloud details: Partly cloudy 2100 ft
Mostly cloudy 10000 ft
2016/02/09 20:10 KCGS 092010Z AUTO 31011G17KT 10SM SCT021 BKN100 04/00 A2955 RMK AO1
KGAI - Gaithersburg, Maryland, USA
Distance from station: WSW 40mi, 65km
Updated: Tue, 09-Feb-2016 3:15pm EST
Overcast
Overcast
 Wind from WNW
Wind: WNW 12 mph , 19 km/h
Temperature: 34°F , 1°C
Wind Chill: 25°F , -4°C
Dew Point: 28°F , -2°C
Humidity: 81%
Barometer: 29.59 inHg , 1002 hPa
Clouds: Overcast
Visibility: 10 miles , 16 km
Cloud details: Overcast 1000 ft
2016/02/09 20:15 KGAI 092015Z AUTO 30010KT 10SM OVC010 01/M02 A2959 RMK AO1 P0001
 
KTHV - York, Pennsylvania, USA
Distance from station: NNW 40mi, 65km
Updated: Tue, 09-Feb-2016 3:12pm EST
Light snow, Mist, Overcast
Light snow, Mist, Overcast
 Wind from calm
Wind: Calm
Temperature: 32°F , 0°C
Dew Point: 30°F , -1°C
Humidity: 93%
Barometer: 29.54 inHg , 1000.3 hPa
Summary: Light snow, Mist
Clouds: Overcast
Visibility: 3/4 mile , 5 km
Cloud details: Few Clouds 500 ft
Mostly cloudy 1900 ft
Overcast 3000 ft
2016/02/09 20:12 KTHV 092012Z AUTO 00000KT 3/4SM -SN BR FEW005 BKN019 OVC030 00/M01 A2954 RMK AO2 P0002 T00001011
KFDK - Frederick, Maryland, USA
Distance from station: W 47mi, 75km
Updated: Tue, 09-Feb-2016 2:50pm EST
Overcast
Overcast
 Wind from WNW
Wind: WNW 10 mph , 17 km/h, Gust: 16 mph , 26 km/h
Temperature: 34°F , 1°C
Wind Chill: 26°F , -3°C
Dew Point: 30°F , -1°C
Humidity: 87%
Barometer: 29.59 inHg , 1002 hPa
Clouds: Overcast
Visibility: 5 miles , 8 km
Cloud details: Partly cloudy 1500 ft
Mostly cloudy 4400 ft
Overcast 5000 ft
2016/02/09 19:50 KFDK 091950Z 29009G14KT 5SM SCT015 BKN044 OVC050 01/M01 A2959
 
KESN - Easton/Newnam, Maryland, USA
Distance from station: SSE 48mi, 78km
Updated: Tue, 09-Feb-2016 2:53pm EST
Overcast
Overcast
 Wind from W
Wind: W 3 mph , 6 km/h
Temperature: 39°F , 4°C
Dew Point: 39°F , 4°C
Humidity: 100%
Barometer: 29.57 inHg , 1001.4 hPa
Clouds: Overcast
Visibility: 10 miles , 16 km
Cloud details: Mostly cloudy 1500 ft
Overcast 2300 ft
2016/02/09 19:53 KESN 091953Z 28003KT 10SM BKN015 OVC023 04/04 A2957
KDCA - Washington/Natl, Washington D.c., USA
Distance from station: SW 49mi, 79km
Updated: Tue, 09-Feb-2016 3:14pm EST
Light rain, Overcast
Light rain, Overcast
 Wind from NNW
Wind: NNW 15 mph , 24 km/h
Temperature: 39°F , 4°C
Wind Chill: 31°F , -1°C
Dew Point: 30°F , -1°C
Humidity: 70%
Barometer: 29.57 inHg , 1001.4 hPa
Summary: Light rain
Clouds: Overcast
Visibility: 10 miles , 16 km
Cloud details: Mostly cloudy 2300 ft
Overcast 7000 ft
2016/02/09 20:14 KDCA 092014Z 33013KT 10SM -RA BKN023 OVC070 04/M01 A2957 RMK AO2 RAB10 BINOVC P0000 T00391006
 
KLNS - Lancaster, Pennsylvania, USA
Distance from station: N 49mi, 79km
Updated: Tue, 09-Feb-2016 3:01pm EST
Snow, Freezing, Fog, Overcast
Snow, Freezing, Fog, Overcast
 Wind from NE
Wind: NE 5 mph , 7 km/h
Temperature: 30°F , -1°C
Wind Chill: 25°F , -4°C
Dew Point: 30°F , -1°C
Humidity: 100%
Barometer: 29.54 inHg , 1000.3 hPa
Summary: Snow, Freezing, Fog
Clouds: Overcast
Visibility: 1/2 mile , 2 km
Cloud details: Overcast 1100 ft
2016/02/09 20:01 KLNS 092001Z 05004KT 1/2SM SN FZFG VV011 M01/M01 A2954 RMK AO2 P0000 T10061011
KILG - Wilmington, Delaware, USA
Distance from station: ENE 50mi, 81km
Updated: Tue, 09-Feb-2016 2:51pm EST
Mist, Overcast
Mist, Overcast
 Wind from NE
Wind: NE 9 mph , 15 km/h
Temperature: 36°F , 2°C
Wind Chill: 29°F , -2°C
Dew Point: 32°F , 0°C
Humidity: 87%
Barometer: 29.54 inHg , 1000.3 hPa
Summary: Mist
Clouds: Overcast
Visibility: 5 miles , 8 km
Cloud details: Mostly cloudy 800 ft
Mostly cloudy 1400 ft
Overcast 5000 ft
2016/02/09 19:51 KILG 091951Z 05008KT 5SM UP BR BKN008 BKN014 OVC050 02/00 A2954 RMK AO2 UPB47SNE08 SLP005 P0000 T00170000 $